Decoded Metar for KOFK (NORFOLK in NE, USA) (IATA:OFK) | Meteo·Mobile Aviation Weather
aviador You're here:

KOFK Decoded Metar

NORFOLK in NE, USA
Report Time2019-06-18 14:45:00
UTC Time2019-06-18 14:58:03
Flight Rules mvfr MVFR
Wind040° at 09 Gusting to 17 kt
W.Decomp.*RWY 01: 8.2 kt HW 3.8 kt RCW
RWY 32: 2.3 kt HW 8.7 kt RCW
Visibility9999 m
Phenomena:Light Rain
Clouds:Scattered 006 Hf
Overcast 018 Hf
Expected CloudBase > 800 ft AGL from Temp-Dew spread
Ceiling1,800 ft
Temp17°C (ISA +5)
Dew Point15°C (88% RH)
AAT15.4°C
QNH1016 hPa
Density Alt2,270 ft
Elevation1,542 ft
Report Wrong Elevation
Raw Report
KOFK 181445Z AUTO 04009G17KT 8SM -RA SCT006 OVC018 17/15 A2999=

Extra information for KOFK:More info

Metar Taf Metar & Taf Last 4 Metars F.Rules Stats Wind Profile Meteogram Temp Stats Airport Information Weather charts Add Link Nearby VenuesMetar ALERT Operation Metar Decoded Social comments

AIRNAV info for KOFK